Time;durP1;ratioP1;P1;durP2;ratioP2;P2;SDS_P1;SDS_P2;PMS_P1;PMS_P2;Temp;Humidity;BMP_temperature;BMP_pressure;BME280_temperature;BME280_humidity;BME280_pressure;Samples;Min_cycle;Max_cycle;Signal;HPM_P1;HPM_P2
2023/04/27 00:00:35;;;;;;;5.20;2.77;;;;;;;3.66;73.42;101991.56;5013825;28;20069;-77
2023/04/27 00:03:04;;;;;;;4.23;2.57;;;;;;;3.64;72.72;101988.94;5013796;28;20071;-77
2023/04/27 00:05:33;;;;;;;4.37;2.83;;;;;;;3.60;72.39;102000.88;5015139;28;20038;-77
2023/04/27 00:07:59;;;;;;;6.20;2.90;;;;;;;3.57;72.89;101998.25;5015892;28;20018;-77
2023/04/27 00:10:24;;;;;;;5.30;2.97;;;;;;;3.56;72.64;101993.06;5013423;28;20560;-77
2023/04/27 00:12:49;;;;;;;4.90;2.90;;;;;;;3.55;72.82;101996.47;5011363;28;20014;-77
2023/04/27 00:15:14;;;;;;;5.37;3.00;;;;;;;3.53;72.25;102000.72;5006988;28;20021;-77
2023/04/27 00:17:41;;;;;;;6.00;3.10;;;;;;;3.52;72.83;101991.25;5011907;28;20323;-77
2023/04/27 00:20:10;;;;;;;5.43;3.37;;;;;;;3.48;73.04;101985.19;5011242;28;20025;-77
2023/04/27 00:22:36;;;;;;;4.40;2.77;;;;;;;3.44;72.78;101989.38;5010722;28;20026;-77
2023/04/27 00:25:01;;;;;;;6.27;2.87;;;;;;;3.38;73.70;101994.41;5005957;28;20527;-77
2023/04/27 00:27:27;;;;;;;4.63;2.67;;;;;;;3.35;74.38;101996.91;5004982;28;20053;-77
2023/04/27 00:29:52;;;;;;;4.93;2.90;;;;;;;3.33;74.46;101999.41;5002923;28;20112;-77
2023/04/27 00:32:17;;;;;;;4.80;2.80;;;;;;;3.33;73.68;101996.00;5012238;28;20033;-77
2023/04/27 00:34:42;;;;;;;5.37;2.73;;;;;;;3.28;73.72;101995.00;5010412;28;20465;-77
2023/04/27 00:37:08;;;;;;;4.53;2.87;;;;;;;3.24;73.67;101986.38;5008718;28;20166;-77
2023/04/27 00:39:35;;;;;;;4.33;2.47;;;;;;;3.23;73.47;101981.19;5016250;28;20221;-76
2023/04/27 00:42:00;;;;;;;4.37;2.70;;;;;;;3.23;73.29;101988.91;5010903;28;20385;-77
2023/04/27 00:44:26;;;;;;;4.63;2.90;;;;;;;3.18;73.46;101993.91;5011386;28;20034;-77
2023/04/27 00:46:52;;;;;;;5.83;2.73;;;;;;;3.14;74.76;101993.00;5008199;28;20026;-77
2023/04/27 00:49:21;;;;;;;6.53;2.77;;;;;;;3.12;74.54;101994.66;5009678;28;20022;-77
2023/04/27 00:51:47;;;;;;;4.00;2.47;;;;;;;3.10;74.49;101996.31;5008377;28;20041;-77
2023/04/27 00:54:15;;;;;;;4.77;2.63;;;;;;;3.07;73.94;102003.09;5007603;28;20021;-77
2023/04/27 00:56:40;;;;;;;5.43;2.87;;;;;;;3.03;73.50;101997.88;5004464;28;20061;-77
2023/04/27 00:59:06;;;;;;;6.00;2.77;;;;;;;2.98;74.09;101996.03;5000033;28;20061;-77
2023/04/27 01:01:32;;;;;;;4.70;2.73;;;;;;;2.94;73.69;101997.66;5003387;28;20033;-77
2023/04/27 01:03:57;;;;;;;6.10;3.13;;;;;;;2.91;74.20;101986.41;4998752;28;20034;-76
2023/04/27 01:06:22;;;;;;;5.07;2.90;;;;;;;2.85;74.74;101987.13;4998209;28;20018;-77
2023/04/27 01:08:48;;;;;;;5.43;2.80;;;;;;;2.81;75.32;101988.78;4999658;28;20473;-77
2023/04/27 01:11:13;;;;;;;4.47;2.87;;;;;;;2.77;75.65;101999.78;5003850;28;20026;-77
2023/04/27 01:13:38;;;;;;;4.37;2.70;;;;;;;2.75;75.88;101996.31;5009812;28;20026;-77
2023/04/27 01:16:04;;;;;;;4.70;3.00;;;;;;;2.76;75.79;101992.91;5004744;28;20457;-77
2023/04/27 01:18:29;;;;;;;4.50;2.67;;;;;;;2.80;75.30;101993.88;5010103;28;20018;-77
2023/04/27 01:20:54;;;;;;;4.27;2.60;;;;;;;2.80;74.96;101989.59;5001175;28;20469;-77
2023/04/27 01:23:20;;;;;;;4.67;2.60;;;;;;;2.75;75.06;101993.75;4997033;28;20101;-77
2023/04/27 01:25:46;;;;;;;4.77;2.53;;;;;;;2.71;75.25;101990.25;5006722;28;20389;-77
2023/04/27 01:28:11;;;;;;;4.97;2.47;;;;;;;2.70;75.60;101992.78;5011176;28;20046;-77
2023/04/27 01:30:36;;;;;;;5.03;2.63;;;;;;;2.68;75.11;101994.44;5014480;28;20025;-77
2023/04/27 01:33:02;;;;;;;5.23;2.60;;;;;;;2.68;74.92;101999.56;5013229;28;20393;-76
2023/04/27 01:35:27;;;;;;;3.73;2.23;;;;;;;2.65;75.45;101997.78;5013147;28;20021;-77
2023/04/27 01:37:53;;;;;;;4.43;2.50;;;;;;;2.65;75.35;101999.50;5018351;28;20477;-77
2023/04/27 01:40:18;;;;;;;4.23;2.57;;;;;;;2.62;74.64;101996.84;5015813;28;20026;-77
2023/04/27 01:42:43;;;;;;;6.37;2.97;;;;;;;2.57;74.77;101994.16;5014640;28;20028;-77
2023/04/27 01:45:09;;;;;;;4.40;2.70;;;;;;;2.52;75.34;101991.47;5013317;28;20021;-77
2023/04/27 01:47:35;;;;;;;5.67;2.77;;;;;;;2.50;75.71;101990.56;5011052;28;20037;-77
2023/04/27 01:50:00;;;;;;;4.83;3.00;;;;;;;2.50;75.74;101990.56;5013326;28;21673;-77
2023/04/27 01:52:26;;;;;;;5.07;2.70;;;;;;;2.50;75.86;101989.69;5013772;28;20485;-77
2023/04/27 01:54:51;;;;;;;4.90;2.53;;;;;;;2.50;75.97;101994.81;5014559;28;20026;-77
2023/04/27 01:57:16;;;;;;;3.93;2.37;;;;;;;2.49;76.04;101987.94;5012893;28;20045;-77
2023/04/27 01:59:41;;;;;;;4.40;2.50;;;;;;;2.48;75.52;101987.06;5013973;28;20041;-77
2023/04/27 02:02:07;;;;;;;4.13;2.73;;;;;;;2.45;75.62;101984.41;5012217;28;20053;-77
2023/04/27 02:04:32;;;;;;;5.73;2.53;;;;;;;2.41;75.47;101990.31;5012833;28;20055;-77
2023/04/27 02:06:57;;;;;;;5.33;2.77;;;;;;;2.36;75.75;101990.19;5008914;28;20021;-76
2023/04/27 02:09:23;;;;;;;6.03;2.43;;;;;;;2.37;75.50;101985.94;5008243;28;20092;-77
2023/04/27 02:11:48;;;;;;;4.90;2.60;;;;;;;2.34;75.01;101983.28;5006548;28;20037;-77
2023/04/27 02:14:14;;;;;;;5.37;2.80;;;;;;;2.31;75.84;101983.19;5007554;28;20092;-77
2023/04/27 02:16:39;;;;;;;3.80;2.40;;;;;;;2.30;76.61;101976.31;5006683;28;20029;-77
2023/04/27 02:19:04;;;;;;;4.40;2.50;;;;;;;2.26;76.16;101978.78;5009715;28;20029;-77
2023/04/27 02:21:29;;;;;;;5.13;2.70;;;;;;;2.23;76.39;101973.56;5008228;28;20029;-77
2023/04/27 02:23:55;;;;;;;3.70;2.40;;;;;;;2.19;76.09;101973.44;5010010;28;20036;-77
2023/04/27 02:26:21;;;;;;;5.93;2.57;;;;;;;2.13;75.25;101980.16;5007892;28;20026;-77
2023/04/27 02:28:47;;;;;;;4.17;2.43;;;;;;;2.09;75.75;101977.47;5005231;28;20053;-77
2023/04/27 02:31:13;;;;;;;4.10;2.40;;;;;;;2.06;76.26;101974.81;5003040;28;20034;-77
2023/04/27 02:33:39;;;;;;;4.50;2.53;;;;;;;2.06;76.34;101977.38;5005665;28;20064;-77
2023/04/27 02:36:05;;;;;;;4.93;2.47;;;;;;;2.03;76.44;101967.91;5008751;28;20425;-77
2023/04/27 02:38:30;;;;;;;4.63;2.50;;;;;;;2.01;76.63;101959.28;5008321;28;20025;-77
2023/04/27 02:40:55;;;;;;;4.80;2.70;;;;;;;2.00;76.99;101957.53;5009930;28;20067;-77
2023/04/27 02:43:21;;;;;;;4.13;2.60;;;;;;;2.00;77.15;101957.53;5007886;28;20056;-77
2023/04/27 02:45:46;;;;;;;5.20;2.60;;;;;;;2.01;77.42;101958.44;5008871;28;20029;-77
2023/04/27 02:48:12;;;;;;;7.03;3.17;;;;;;;2.02;77.49;101962.75;5008782;28;20021;-77
2023/04/27 02:50:41;;;;;;;5.00;2.83;;;;;;;2.01;77.31;101958.44;5005845;28;20416;-77
2023/04/27 02:53:07;;;;;;;5.53;3.00;;;;;;;2.00;77.37;101951.56;4999452;28;20077;-77
2023/04/27 02:55:32;;;;;;;6.17;2.87;;;;;;;1.99;77.67;101955.81;5005012;28;20428;-77
2023/04/27 02:57:58;;;;;;;5.73;3.20;;;;;;;1.99;77.82;101968.63;5001146;28;20029;-77
2023/04/27 03:00:23;;;;;;;5.33;2.93;;;;;;;1.99;78.09;101970.34;5003932;28;20034;-77
2023/04/27 03:02:48;;;;;;;6.53;3.23;;;;;;;1.99;77.82;101960.94;4999121;28;20061;-76
2023/04/27 03:05:14;;;;;;;5.70;3.20;;;;;;;2.00;77.49;101972.09;4997617;28;20084;-77
2023/04/27 03:07:39;;;;;;;5.10;2.80;;;;;;;1.99;77.67;101960.06;5001541;28;20022;-77
2023/04/27 03:10:05;;;;;;;4.80;2.77;;;;;;;1.96;77.88;101966.00;5010473;28;20450;-76
2023/04/27 03:12:31;;;;;;;4.53;2.83;;;;;;;1.95;78.03;101961.69;5011167;28;20101;-77
2023/04/27 03:14:56;;;;;;;5.23;3.07;;;;;;;1.93;77.68;101966.78;5005201;28;20066;-77
2023/04/27 03:17:21;;;;;;;4.63;3.03;;;;;;;1.91;77.38;101965.00;5008374;28;20034;-77
2023/04/27 03:19:48;;;;;;;5.77;2.80;;;;;;;1.88;77.41;101957.22;5009854;28;20145;-77
2023/04/27 03:22:13;;;;;;;5.57;2.90;;;;;;;1.85;77.78;101963.13;5009420;28;20114;-77
2023/04/27 03:24:38;;;;;;;6.33;3.00;;;;;;;1.84;77.50;101956.25;5008147;28;20114;-77
2023/04/27 03:27:03;;;;;;;5.53;3.03;;;;;;;1.82;77.53;101963.03;5006323;28;20117;-77
2023/04/27 03:29:29;;;;;;;5.27;2.93;;;;;;;1.80;77.62;101955.28;5006338;28;20092;-77
2023/04/27 03:31:54;;;;;;;5.07;2.90;;;;;;;1.77;78.30;101968.03;5008583;28;20052;-77
2023/04/27 03:34:20;;;;;;;5.47;3.20;;;;;;;1.77;77.94;101972.28;5009407;28;20022;-77
2023/04/27 03:36:45;;;;;;;5.37;3.03;;;;;;;1.76;77.98;101968.88;5013489;28;20096;-77
2023/04/27 03:39:11;;;;;;;5.63;3.20;;;;;;;1.77;78.15;101974.84;5015058;28;20025;-77
2023/04/27 03:41:36;;;;;;;5.57;2.83;;;;;;;1.76;78.40;101975.69;5013663;28;20073;-77
2023/04/27 03:44:02;;;;;;;5.67;2.87;;;;;;;1.75;78.05;101979.06;5013863;28;20029;-77
2023/04/27 03:46:27;;;;;;;5.63;3.00;;;;;;;1.74;77.83;101979.88;5016083;28;20025;-77
2023/04/27 03:48:52;;;;;;;6.57;2.90;;;;;;;1.72;78.27;101986.66;5014975;28;20037;-77
2023/04/27 03:51:18;;;;;;;5.40;3.40;;;;;;;1.72;78.13;101981.53;5015053;28;20091;-77
2023/04/27 03:53:43;;;;;;;6.87;3.53;;;;;;;1.72;77.50;101984.09;5015278;28;20029;-76
2023/04/27 03:56:08;;;;;;;6.53;3.10;;;;;;;1.70;77.57;101983.22;5015529;28;20374;-77
2023/04/27 03:58:33;;;;;;;5.77;3.60;;;;;;;1.65;78.10;101978.81;5014965;28;20032;-77
2023/04/27 04:00:59;;;;;;;4.80;2.93;;;;;;;1.62;78.20;101983.84;5012484;28;20099;-77
2023/04/27 04:03:24;;;;;;;6.57;3.60;;;;;;;1.62;78.54;101988.97;5015805;28;20030;-77
2023/04/27 04:05:49;;;;;;;5.57;3.50;;;;;;;1.61;78.17;101989.81;5017177;28;20026;-77
2023/04/27 04:08:14;;;;;;;5.40;3.33;;;;;;;1.61;77.87;101983.81;5011023;28;20040;-77
2023/04/27 04:10:40;;;;;;;6.43;3.40;;;;;;;1.59;78.51;101985.47;5012540;28;20473;-77
2023/04/27 04:13:05;;;;;;;5.63;3.23;;;;;;;1.58;78.86;101992.28;5017084;28;20047;-77
2023/04/27 04:15:30;;;;;;;5.87;3.23;;;;;;;1.57;78.75;101992.22;5010093;28;20026;-77
2023/04/27 04:17:55;;;;;;;6.43;3.57;;;;;;;1.57;79.08;101997.38;5015743;28;20388;-77
2023/04/27 04:20:21;;;;;;;5.90;3.20;;;;;;;1.58;78.71;101999.97;5010276;28;20057;-76
2023/04/27 04:22:47;;;;;;;6.40;3.37;;;;;;;1.57;79.08;101998.22;5012498;28;20033;-77
2023/04/27 04:25:12;;;;;;;7.30;3.40;;;;;;;1.59;78.55;101996.56;5011411;28;20092;-77
2023/04/27 04:27:38;;;;;;;6.30;3.53;;;;;;;1.59;78.75;102001.72;5008074;28;20026;-77
2023/04/27 04:30:05;;;;;;;6.83;3.50;;;;;;;1.60;79.20;102000.03;5023141;28;20030;-77
2023/04/27 04:32:30;;;;;;;6.27;3.67;;;;;;;1.61;79.15;101999.22;5002957;28;20105;-76
2023/04/27 04:34:56;;;;;;;9.13;3.40;;;;;;;1.63;78.90;102006.13;5007346;28;20091;-77
2023/04/27 04:37:22;;;;;;;7.30;3.70;;;;;;;1.64;79.40;102005.28;5013988;28;20512;-76
2023/04/27 04:39:47;;;;;;;6.80;3.30;;;;;;;1.65;78.72;102011.28;5010962;28;20021;-77
2023/04/27 04:42:12;;;;;;;6.33;3.20;;;;;;;1.66;79.27;102013.91;4997355;28;20034;-76
2023/04/27 04:44:38;;;;;;;6.07;3.30;;;;;;;1.68;79.14;102013.94;5014614;28;20041;-77
2023/04/27 04:47:04;;;;;;;6.07;3.30;;;;;;;1.69;79.25;102017.38;5019407;28;20053;-76
2023/04/27 04:49:29;;;;;;;5.77;3.17;;;;;;;1.71;79.93;102013.19;5013374;28;20116;-76
2023/04/27 04:51:54;;;;;;;6.07;3.57;;;;;;;1.73;79.70;102019.19;5018425;28;20470;-76
2023/04/27 04:54:20;;;;;;;5.37;3.40;;;;;;;1.74;79.62;102009.00;5015304;28;20353;-77
2023/04/27 04:56:45;;;;;;;7.63;3.60;;;;;;;1.78;80.16;102020.22;5011218;28;20034;-77
2023/04/27 04:59:10;;;;;;;6.67;3.73;;;;;;;1.79;79.82;102019.38;5014341;28;20051;-77
2023/04/27 05:01:36;;;;;;;6.13;3.60;;;;;;;1.82;79.73;102020.34;5015389;28;20029;-76
2023/04/27 05:04:01;;;;;;;5.47;3.27;;;;;;;1.85;79.74;102023.84;5014309;28;20026;-77
2023/04/27 05:06:26;;;;;;;8.17;3.70;;;;;;;1.88;79.87;102014.50;5008842;28;20389;-77
2023/04/27 05:08:52;;;;;;;7.73;3.57;;;;;;;1.92;79.97;102021.50;5014971;28;20037;-77
2023/04/27 05:11:17;;;;;;;9.57;3.80;;;;;;;1.97;79.70;102026.75;5016544;28;20080;-77
2023/04/27 05:13:42;;;;;;;6.40;3.73;;;;;;;2.02;79.10;102027.75;5009125;28;20033;-77
2023/04/27 05:16:08;;;;;;;6.20;3.70;;;;;;;2.08;79.04;102032.19;5014683;28;20474;-77
2023/04/27 05:18:34;;;;;;;6.83;4.10;;;;;;;2.10;79.76;102025.41;5015498;28;20021;-77
2023/04/27 05:20:59;;;;;;;8.47;4.20;;;;;;;2.15;79.52;102021.28;5013391;28;20033;-77
2023/04/27 05:23:25;;;;;;;11.17;4.43;;;;;;;2.20;79.48;102027.44;5007250;28;20037;-77
2023/04/27 05:25:50;;;;;;;7.23;4.20;;;;;;;2.25;79.66;102025.84;5004015;28;20037;-77
2023/04/27 05:28:15;;;;;;;8.60;4.20;;;;;;;2.32;79.91;102026.03;5008163;28;20067;-77
2023/04/27 05:30:41;;;;;;;6.73;4.00;;;;;;;2.38;79.46;102031.34;5005710;28;20034;-77
2023/04/27 05:33:06;;;;;;;7.13;4.27;;;;;;;2.43;80.19;102027.16;5007659;28;20106;-77
2023/04/27 05:35:32;;;;;;;8.03;4.10;;;;;;;2.48;79.34;102020.47;5012764;28;20029;-77
2023/04/27 05:37:57;;;;;;;7.33;4.43;;;;;;;2.57;79.42;102032.69;5007578;28;20117;-77
2023/04/27 05:40:23;;;;;;;9.23;4.63;;;;;;;2.62;79.22;102031.13;5011879;28;20034;-77
2023/04/27 05:42:48;;;;;;;8.67;4.87;;;;;;;2.69;79.83;102032.16;5012415;28;20033;-77
2023/04/27 05:45:14;;;;;;;8.43;4.47;;;;;;;2.77;79.35;102034.91;5012287;28;20025;-77
2023/04/27 05:47:39;;;;;;;9.63;4.80;;;;;;;2.84;78.76;102036.78;5011948;28;20361;-77
2023/04/27 05:50:05;;;;;;;7.97;4.37;;;;;;;2.90;78.64;102033.53;5011365;28;20092;-77
2023/04/27 05:52:30;;;;;;;9.53;4.60;;;;;;;2.94;78.64;102030.19;5011051;28;20034;-77
2023/04/27 05:54:57;;;;;;;9.93;5.20;;;;;;;2.98;78.49;102032.00;5012528;28;20043;-77
2023/04/27 05:57:23;;;;;;;8.20;4.93;;;;;;;3.02;78.08;102026.13;5013468;28;20060;-77
2023/04/27 05:59:49;;;;;;;9.87;5.07;;;;;;;3.07;77.68;102029.69;5009572;28;20026;-76
2023/04/27 06:02:14;;;;;;;8.97;4.77;;;;;;;3.13;77.91;102028.97;5010882;28;20312;-76
2023/04/27 06:04:39;;;;;;;8.97;4.73;;;;;;;3.20;78.49;102030.84;5010394;28;20046;-77
2023/04/27 06:07:11;;;;;;;7.67;4.73;;;;;;;3.26;77.49;102030.09;5008562;28;20401;-76
2023/04/27 06:09:37;;;;;;;;;;;;;;;3.34;75.81;102029.44;5009076;28;20061;-77
2023/04/27 06:12:03;;;;;;;7.47;4.67;;;;;;;3.42;77.70;102027.06;5006635;28;19918;-77
2023/04/27 06:14:29;;;;;;;9.23;5.10;;;;;;;3.49;78.25;102034.09;5007867;28;20517;-77
2023/04/27 06:16:55;;;;;;;7.73;4.83;;;;;;;3.60;77.76;102030.88;5009819;28;20030;-77
2023/04/27 06:19:20;;;;;;;8.00;4.50;;;;;;;3.71;77.47;102036.28;5008599;28;20038;-76
2023/04/27 06:21:45;;;;;;;9.23;4.47;;;;;;;3.80;78.11;102029.63;5005936;28;20431;-77
2023/04/27 06:24:11;;;;;;;8.73;4.67;;;;;;;3.92;77.19;102023.88;5010550;28;20596;-77
2023/04/27 06:26:36;;;;;;;10.07;4.73;;;;;;;4.02;78.59;102027.50;5003845;28;20022;-76
2023/04/27 06:29:03;;;;;;;10.07;4.33;;;;;;;4.13;78.77;102029.41;4999761;28;20441;-77
2023/04/27 06:31:28;;;;;;;7.50;3.80;;;;;;;4.24;77.01;102031.38;5000196;28;20529;-77
2023/04/27 06:33:53;;;;;;;6.45;3.90;;;;;;;4.35;77.47;102023.88;5007086;28;20109;-77
2023/04/27 06:36:19;;;;;;;7.43;3.70;;;;;;;4.45;76.66;102021.44;5007942;28;20112;-77
2023/04/27 06:38:45;;;;;;;8.60;3.38;;;;;;;4.56;75.86;102022.53;5008886;28;20026;-77
2023/04/27 06:41:10;;;;;;;6.23;3.50;;;;;;;4.65;75.56;102027.84;5006128;28;20129;-77
2023/04/27 06:43:35;;;;;;;8.45;3.70;;;;;;;4.75;75.21;102028.03;5009836;28;20029;-77
2023/04/27 06:46:01;;;;;;;5.00;3.33;;;;;;;4.83;75.04;102034.16;5009464;28;20429;-77
2023/04/27 06:48:26;;;;;;;6.57;3.50;;;;;;;4.94;74.68;102030.09;5007214;28;20107;-77
2023/04/27 06:50:51;;;;;;;5.95;3.17;;;;;;;5.05;74.08;102022.50;5005904;28;20033;-77
2023/04/27 06:53:17;;;;;;;6.80;3.25;;;;;;;5.14;71.83;102021.78;5004929;28;20033;-77
2023/04/27 06:55:42;;;;;;;7.45;3.50;;;;;;;5.21;71.88;102015.88;5006240;28;20037;-77
2023/04/27 06:58:07;;;;;;;7.10;3.03;;;;;;;5.30;72.07;102017.75;4996953;28;20026;-76
2023/04/27 07:00:33;;;;;;;4.90;2.95;;;;;;;5.38;70.83;102012.69;4997910;28;20038;-77
2023/04/27 07:02:58;;;;;;;7.65;3.55;;;;;;;5.46;72.73;102018.84;4994958;28;20077;-76
2023/04/27 07:05:23;;;;;;;5.35;3.15;;;;;;;5.54;72.09;102016.38;4996526;28;20069;-76
2023/04/27 07:07:49;;;;;;;6.40;3.22;;;;;;;5.62;71.35;102025.09;4993084;28;20030;-76
2023/04/27 07:10:14;;;;;;;5.75;2.78;;;;;;;5.71;71.35;102026.91;4994690;28;20034;-76
2023/04/27 07:12:40;;;;;;;5.53;3.13;;;;;;;5.76;70.89;102022.69;5008084;28;20065;-76
2023/04/27 07:15:06;;;;;;;8.23;3.20;;;;;;;5.79;69.74;102022.75;5003179;28;20121;-76
2023/04/27 07:17:32;;;;;;;8.10;3.30;;;;;;;5.85;70.60;102021.94;5006228;28;20083;-76
2023/04/27 07:19:58;;;;;;;5.03;3.05;;;;;;;5.93;70.11;102028.06;5004851;28;20357;-77
2023/04/27 07:22:23;;;;;;;5.93;3.25;;;;;;;5.98;70.85;102022.97;5001719;28;20053;-76
2023/04/27 07:24:49;;;;;;;5.80;3.45;;;;;;;6.02;69.28;102024.75;5006701;28;20033;-76
2023/04/27 07:27:14;;;;;;;6.13;3.47;;;;;;;6.07;69.84;102025.69;5005327;28;20038;-76
2023/04/27 07:29:40;;;;;;;6.45;3.42;;;;;;;6.14;69.50;102024.94;4997922;28;20046;-76
2023/04/27 07:32:06;;;;;;;6.38;3.60;;;;;;;6.20;69.10;102022.41;4998441;28;20030;-77
2023/04/27 07:34:32;;;;;;;5.05;3.17;;;;;;;6.26;69.07;102019.00;4997162;28;20029;-77
2023/04/27 07:36:57;;;;;;;7.05;3.92;;;;;;;6.33;68.19;102027.69;5003717;28;20489;-77
2023/04/27 07:39:22;;;;;;;7.40;3.63;;;;;;;6.38;67.75;102019.19;5010590;28;20496;-76
2023/04/27 07:41:48;;;;;;;8.57;3.83;;;;;;;6.45;69.28;102022.69;5007981;28;20037;-76
2023/04/27 07:44:14;;;;;;;6.38;3.80;;;;;;;6.52;68.88;102023.63;5008603;28;20119;-76
2023/04/27 07:46:39;;;;;;;8.63;4.22;;;;;;;6.62;68.43;102014.22;5009758;28;20922;-76
2023/04/27 07:49:05;;;;;;;7.03;4.25;;;;;;;6.68;68.62;102012.56;5008739;28;20424;-76
2023/04/27 07:51:30;;;;;;;8.23;3.90;;;;;;;6.77;67.65;102016.97;5009949;28;20064;-76
2023/04/27 07:53:56;;;;;;;6.30;3.63;;;;;;;6.89;68.14;102015.31;5009657;28;22146;-77
2023/04/27 07:56:21;;;;;;;8.10;3.53;;;;;;;6.97;67.96;102011.94;5008958;28;20080;-78
2023/04/27 07:58:46;;;;;;;6.28;3.30;;;;;;;7.06;67.14;102011.16;5008120;28;20485;-76
2023/04/27 08:01:12;;;;;;;6.82;3.33;;;;;;;7.11;67.26;102012.06;5008465;28;20041;-78
2023/04/27 08:03:37;;;;;;;7.13;3.95;;;;;;;7.17;66.27;102005.22;5007781;28;20029;-76
2023/04/27 08:06:03;;;;;;;6.53;3.47;;;;;;;7.24;66.37;102007.84;5008376;28;20285;-77
2023/04/27 08:08:28;;;;;;;6.50;3.45;;;;;;;7.31;66.70;102008.75;5003089;28;20112;-77
2023/04/27 08:10:54;;;;;;;6.63;3.38;;;;;;;7.33;65.82;102007.06;4996495;28;20404;-76
2023/04/27 08:13:19;;;;;;;6.45;3.33;;;;;;;7.40;66.23;102013.97;4997594;28;20164;-77
2023/04/27 08:15:44;;;;;;;5.97;3.38;;;;;;;7.49;66.36;102007.16;4999398;28;20492;-77
2023/04/27 08:18:09;;;;;;;7.43;3.40;;;;;;;7.58;64.72;102015.84;4999347;28;20026;-77
2023/04/27 08:20:35;;;;;;;7.82;3.40;;;;;;;7.68;63.56;102016.75;5003887;28;20025;-77
2023/04/27 08:23:00;;;;;;;5.75;3.30;;;;;;;7.78;64.12;102011.59;4999326;28;20152;-77
2023/04/27 08:25:25;;;;;;;6.10;3.15;;;;;;;7.86;62.63;102017.66;4997850;28;21698;-77
2023/04/27 08:27:51;;;;;;;6.28;3.30;;;;;;;7.94;62.39;102018.59;4998426;28;20050;-77
2023/04/27 08:30:16;;;;;;;5.68;3.00;;;;;;;8.02;64.90;102019.50;5000116;28;20033;-77
2023/04/27 08:32:41;;;;;;;5.80;3.17;;;;;;;8.08;61.80;102007.41;5002471;28;20034;-77
2023/04/27 08:35:07;;;;;;;5.65;3.17;;;;;;;8.10;63.97;102009.16;5000377;28;20033;-77
2023/04/27 08:37:32;;;;;;;8.32;3.10;;;;;;;8.17;62.71;102012.63;5001650;28;20035;-77
2023/04/27 08:39:58;;;;;;;8.18;3.33;;;;;;;8.22;60.78;102005.72;5004411;28;20026;-77
2023/04/27 08:42:24;;;;;;;6.72;3.17;;;;;;;8.25;61.63;101994.50;5003244;28;20171;-77
2023/04/27 08:44:49;;;;;;;6.30;3.50;;;;;;;8.33;61.86;101985.88;5001307;28;21099;-77
2023/04/27 08:47:15;;;;;;;7.55;3.47;;;;;;;8.39;60.56;101986.75;5001175;28;20040;-77
2023/04/27 08:49:40;;;;;;;6.00;3.20;;;;;;;8.45;62.20;101985.06;5003530;28;20435;-77
2023/04/27 08:52:16;;;;;;;6.70;3.22;;;;;;;8.52;61.00;101983.34;5003182;28;20027;-77
2023/04/27 08:54:42;;;;;;;5.32;2.85;;;;;;;8.56;59.91;101989.41;5005407;28;20675;-77
2023/04/27 08:57:11;;;;;;;7.63;3.67;;;;;;;8.60;59.15;101984.22;4999584;28;20092;-77
2023/04/27 08:59:37;;;;;;;5.28;3.33;;;;;;;8.64;57.90;101987.66;5000809;28;20140;-77
2023/04/27 09:02:03;;;;;;;7.38;3.80;;;;;;;8.68;58.76;101991.16;5004878;28;20658;-77
2023/04/27 09:04:36;;;;;;;9.45;3.50;;;;;;;8.74;59.67;101988.53;5003060;28;20022;-77
2023/04/27 09:07:18;;;;;;;5.68;3.13;;;;;;;8.83;59.04;101985.09;4997174;28;20036;-77
2023/04/27 09:09:44;;;;;;;6.30;2.97;;;;;;;8.90;57.53;101990.28;5015035;28;20046;-77
2023/04/27 09:12:20;;;;;;;5.32;3.20;;;;;;;8.96;59.73;101990.28;5004142;28;20465;-76
2023/04/27 09:15:02;;;;;;;6.45;3.10;;;;;;;9.02;59.39;101988.56;5002905;28;20500;-76
2023/04/27 09:17:29;;;;;;;4.15;2.72;;;;;;;9.06;58.86;101991.16;5004791;28;20050;-77
2023/04/27 09:20:09;;;;;;;5.85;3.15;;;;;;;9.13;58.32;101992.00;5002644;28;20090;-76
2023/04/27 09:22:57;;;;;;;5.93;3.03;;;;;;;9.27;58.19;101990.25;5002413;28;20037;-77
2023/04/27 09:25:31;;;;;;;5.38;3.13;;;;;;;9.35;54.73;101982.44;5002477;28;20064;-77
2023/04/27 09:27:57;;;;;;;5.22;2.63;;;;;;;9.39;51.86;102001.50;5000251;28;20104;-76
2023/04/27 09:30:23;;;;;;;4.43;2.40;;;;;;;9.41;52.06;101997.13;5001254;28;20033;-76
2023/04/27 09:32:53;;;;;;;5.68;2.33;;;;;;;9.44;53.62;101989.34;5020259;28;20057;-76
2023/04/27 09:35:23;;;;;;;5.30;2.58;;;;;;;9.51;51.24;101987.59;5006530;28;20062;-76
2023/04/27 09:37:51;;;;;;;5.20;2.20;;;;;;;9.51;51.82;101988.47;5007024;28;20036;-76
2023/04/27 09:40:18;;;;;;;4.72;2.20;;;;;;;9.56;52.30;101989.28;5004946;28;20021;-76
2023/04/27 09:42:44;;;;;;;5.53;2.63;;;;;;;9.63;52.34;101984.09;5007154;28;20026;-77
2023/04/27 09:45:10;;;;;;;5.57;2.85;;;;;;;9.68;52.28;101983.19;5006719;28;20030;-77
2023/04/27 09:47:36;;;;;;;5.95;3.00;;;;;;;9.75;52.29;101975.41;5006185;28;20088;-77
2023/04/27 09:50:02;;;;;;;5.22;2.75;;;;;;;9.82;52.90;101972.75;5005375;28;20121;-77
2023/04/27 09:52:27;;;;;;;5.78;2.90;;;;;;;9.90;52.73;101966.69;5006181;28;20034;-77
2023/04/27 09:54:57;;;;;;;4.97;2.30;;;;;;;9.94;51.16;101970.97;5005621;28;20053;-77
2023/04/27 09:57:35;;;;;;;5.05;2.83;;;;;;;9.99;53.21;101958.81;5002801;28;20037;-78
2023/04/27 10:00:19;;;;;;;4.78;2.50;;;;;;;10.04;52.64;101954.47;4998108;28;20117;-78
2023/04/27 10:02:54;;;;;;;5.20;2.90;;;;;;;10.11;53.44;101960.50;5004749;28;20456;-78
2023/04/27 10:05:36;;;;;;;4.78;2.75;;;;;;;10.18;53.87;101969.97;5003570;28;20029;-78
2023/04/27 10:08:03;;;;;;;5.20;2.83;;;;;;;10.26;49.60;101968.19;5006494;28;20060;-77
2023/04/27 10:10:30;;;;;;;4.18;2.60;;;;;;;10.33;50.53;101963.81;5007081;28;20069;-78
2023/04/27 10:12:59;;;;;;;4.28;2.72;;;;;;;10.35;49.35;101964.69;5005609;28;20036;-77
2023/04/27 10:15:29;;;;;;;7.95;3.13;;;;;;;10.36;50.10;101958.59;5006479;28;20064;-77
2023/04/27 10:17:57;;;;;;;6.00;2.97;;;;;;;10.41;49.70;101956.88;5004783;28;20489;-77
2023/04/27 10:20:35;;;;;;;5.63;3.00;;;;;;;10.47;51.59;101959.41;5004849;28;20038;-77
2023/04/27 10:23:01;;;;;;;4.20;2.72;;;;;;;10.52;49.39;101955.91;5005282;28;20037;-77
2023/04/27 10:25:37;;;;;;;5.28;2.92;;;;;;;10.58;51.67;101967.13;5002091;28;20034;-78
2023/04/27 10:28:03;;;;;;;4.90;2.75;;;;;;;10.59;48.01;101966.28;5001765;28;20799;-77
2023/04/27 10:30:34;;;;;;;4.85;2.55;;;;;;;10.54;48.52;101960.22;5004909;28;20030;-77
2023/04/27 10:33:08;;;;;;;5.65;3.10;;;;;;;10.51;48.31;101952.44;5005498;28;20595;-78
2023/04/27 10:35:38;;;;;;;5.22;2.70;;;;;;;10.54;49.72;101956.78;5004668;28;20033;-78
2023/04/27 10:38:16;;;;;;;6.05;2.92;;;;;;;10.65;50.30;101961.91;5004663;28;20553;-78
2023/04/27 10:40:56;;;;;;;4.47;2.58;;;;;;;10.72;49.28;101966.16;5005059;28;20049;-78
2023/04/27 10:43:27;;;;;;;7.05;2.78;;;;;;;10.72;49.35;101959.22;5003853;28;20099;-79
2023/04/27 10:45:53;;;;;;;5.05;2.60;;;;;;;10.70;48.32;101960.97;5003851;28;20479;-78
2023/04/27 10:48:18;;;;;;;5.13;2.90;;;;;;;10.68;48.23;101956.66;5006504;28;20495;-78
2023/04/27 10:50:44;;;;;;;5.65;3.10;;;;;;;10.64;48.43;101945.41;5007804;28;20095;-78
2023/04/27 10:53:10;;;;;;;6.75;3.03;;;;;;;10.68;49.99;101949.72;5006202;28;20449;-78
2023/04/27 10:55:35;;;;;;;5.47;3.17;;;;;;;10.73;49.03;101942.75;5004504;28;20532;-77
2023/04/27 10:58:01;;;;;;;4.63;2.70;;;;;;;10.78;48.89;101943.53;5006885;28;20109;-79
2023/04/27 11:00:42;;;;;;;4.97;2.78;;;;;;;10.78;49.68;101940.09;5008129;28;20028;-79
2023/04/27 11:03:17;;;;;;;5.82;3.08;;;;;;;10.78;48.78;101940.09;5006270;28;20075;-79
2023/04/27 11:05:44;;;;;;;4.75;2.90;;;;;;;10.82;50.67;101938.31;5008085;28;20111;-77
2023/04/27 11:08:13;;;;;;;4.78;2.90;;;;;;;10.85;45.18;101936.53;5007042;28;20038;-76
2023/04/27 11:10:43;;;;;;;4.72;2.70;;;;;;;10.87;46.67;101924.38;5004503;28;20065;-77
2023/04/27 11:13:34;;;;;;;4.47;2.75;;;;;;;10.93;50.39;101928.69;5008526;28;20037;-77
2023/04/27 11:16:00;;;;;;;5.38;3.33;;;;;;;10.96;46.57;101926.03;5008600;28;20038;-78
2023/04/27 11:18:28;;;;;;;5.20;2.92;;;;;;;11.01;46.36;101916.44;5007528;28;20026;-77
2023/04/27 11:21:06;;;;;;;7.00;3.15;;;;;;;11.07;46.76;101907.69;5006856;28;20034;-77
2023/04/27 11:23:38;;;;;;;5.13;2.97;;;;;;;11.14;48.03;101917.19;5007051;28;21468;-77
2023/04/27 11:26:11;;;;;;;5.38;2.80;;;;;;;11.18;48.48;101907.59;5007295;28;20029;-77
2023/04/27 11:28:37;;;;;;;8.02;2.58;;;;;;;11.18;45.34;101910.19;5007080;28;20069;-77